ESNU/UME METAR and TAF weather

Enter ICAO airport designator
Station Type Date Time Source
ESNU METAR 2019/12/07 09:50 UTC NOAA

ESNU 070950Z 32004KT CAVOK M04/M05 Q0983 R14/71//55


Station Type Date Time Source
ESNU Decoded METAR 2019/12/07 09:50 UTC NOAA

Umea Flygplats, Sweden (ESNU) 63-48N 020-17E 14M
Dec 07, 2019 - 04:50 AM EST / 2019.12.07 0950 UTC
Wind: from the NW (320 degrees) at 5 MPH (4 KT):0
Visibility: greater than 7 mile(s):0
Temperature: 24 F (-4 C)
Windchill: 17 F (-8 C):1
Dew Point: 23 F (-5 C)
Relative Humidity: 92%
Pressure (altimeter): 29.03 in. Hg (0983 hPa)
ob: ESNU 070950Z 32004KT CAVOK M04/M05 Q0983 R14/71//55
cycle: 10

Station Type Date Time Source
ESNU TAF 2019/10/24 00:55 UTC NOAA

TAF
AMD ESNU 242348Z 2500/2524 16003KT 0200 FG VV002 PROB40 2500/2509 8000 -RA BKN005

Example: see airport list